Time;durP1;ratioP1;P1;durP2;ratioP2;P2;SDS_P1;SDS_P2;PMS_P1;PMS_P2;Temp;Humidity;BMP_temperature;BMP_pressure;BME280_temperature;BME280_humidity;BME280_pressure;Samples;Min_cycle;Max_cycle;Signal;HPM_P1;HPM_P2
2022/08/15 00:02:17;;;;;;;7.77;6.23;;;;;;;;;;5063520;28;20222;-78
2022/08/15 00:04:44;;;;;;;8.43;6.10;;;;;;;;;;5065657;28;20316;-78
2022/08/15 00:07:11;;;;;;;14.17;6.80;;;;;;;;;;5066337;28;20206;-77
2022/08/15 00:09:39;;;;;;;7.87;5.93;;;;;;;;;;5067855;28;20324;-77
2022/08/15 00:12:08;;;;;;;8.77;6.70;;;;;;;;;;5064871;28;20231;-77
2022/08/15 00:14:37;;;;;;;11.53;6.43;;;;;;;;;;5062852;28;20692;-77
2022/08/15 00:17:09;;;;;;;10.50;6.90;;;;;;;;;;5063922;28;20479;-77
2022/08/15 00:19:38;;;;;;;10.30;6.53;;;;;;;;;;5065077;28;20202;-77
2022/08/15 00:22:06;;;;;;;8.57;6.63;;;;;;;;;;5068162;28;20217;-78
2022/08/15 00:24:34;;;;;;;8.03;6.63;;;;;;;;;;5064728;28;20728;-77
2022/08/15 00:27:02;;;;;;;11.30;6.23;;;;;;;;;;5063955;28;20206;-78
2022/08/15 00:29:32;;;;;;;10.70;6.70;;;;;;;;;;5064904;28;20230;-77
2022/08/15 00:31:59;;;;;;;8.93;6.53;;;;;;;;;;5065761;28;20198;-77
2022/08/15 00:34:26;;;;;;;9.27;6.47;;;;;;;;;;5063284;28;20203;-77
2022/08/15 00:36:53;;;;;;;7.50;6.07;;;;;;;;;;5064326;28;20203;-77
2022/08/15 00:39:23;;;;;;;8.60;6.17;;;;;;;;;;5064300;28;20209;-77
2022/08/15 00:41:51;;;;;;;7.80;5.90;;;;;;;;;;5063240;28;20317;-78
2022/08/15 00:44:20;;;;;;;7.80;5.83;;;;;;;;;;5065131;28;20213;-77
2022/08/15 00:46:51;;;;;;;9.57;6.27;;;;;;;;;;5062190;28;20215;-78
2022/08/15 00:49:19;;;;;;;9.17;6.23;;;;;;;;;;5065282;28;20271;-77
2022/08/15 00:51:48;;;;;;;8.70;6.30;;;;;;;;;;5061859;28;20553;-78
2022/08/15 00:54:19;;;;;;;7.50;6.23;;;;;;;;;;5060277;28;20378;-77
2022/08/15 00:56:47;;;;;;;8.33;6.37;;;;;;;;;;5065335;28;20273;-77
2022/08/15 00:59:15;;;;;;;9.57;6.30;;;;;;;;;;5064463;28;20575;-77
2022/08/15 01:01:43;;;;;;;8.27;6.40;;;;;;;;;;5064520;28;20230;-77
2022/08/15 01:04:13;;;;;;;9.57;6.80;;;;;;;;;;5059321;28;20226;-77
2022/08/15 01:06:40;;;;;;;11.73;6.30;;;;;;;;;;5060119;28;20212;-77
2022/08/15 01:09:08;;;;;;;8.30;6.07;;;;;;;;;;5064045;28;20252;-78
2022/08/15 01:11:37;;;;;;;9.33;6.13;;;;;;;;;;5064442;28;20759;-77
2022/08/15 01:14:06;;;;;;;8.63;6.47;;;;;;;;;;5061640;28;20241;-77
2022/08/15 01:16:35;;;;;;;7.17;5.80;;;;;;;;;;5061027;28;20230;-77
2022/08/15 01:19:02;;;;;;;9.30;6.30;;;;;;;;;;5064889;28;20203;-78
2022/08/15 01:21:38;;;;;;;9.50;6.67;;;;;;;;;;5064390;28;20222;-77
2022/08/15 01:24:10;;;;;;;9.50;6.43;;;;;;;;;;5063858;28;20882;-77
2022/08/15 01:26:40;;;;;;;10.33;6.53;;;;;;;;;;5063461;28;20202;-77
2022/08/15 01:29:07;;;;;;;14.27;7.13;;;;;;;;;;5061796;28;20268;-77
2022/08/15 01:31:36;;;;;;;9.20;7.00;;;;;;;;;;5063459;28;20291;-77
2022/08/15 01:34:05;;;;;;;11.27;7.00;;;;;;;;;;5059368;28;20202;-77
2022/08/15 01:36:33;;;;;;;9.17;6.60;;;;;;;;;;5065012;28;20261;-78
2022/08/15 01:39:04;;;;;;;9.50;6.60;;;;;;;;;;5061884;28;20281;-77
2022/08/15 01:41:33;;;;;;;10.30;6.63;;;;;;;;;;5064658;28;20308;-77
2022/08/15 01:44:05;;;;;;;10.80;6.80;;;;;;;;;;5060807;28;20286;-78
2022/08/15 01:46:34;;;;;;;9.40;6.33;;;;;;;;;;5062779;28;20206;-77
2022/08/15 01:49:06;;;;;;;12.77;6.70;;;;;;;;;;5065663;28;20595;-78
2022/08/15 01:51:33;;;;;;;11.33;6.40;;;;;;;;;;5064441;28;20226;-77
2022/08/15 01:54:03;;;;;;;12.97;6.93;;;;;;;;;;5061960;28;20206;-78
2022/08/15 01:56:32;;;;;;;11.80;6.70;;;;;;;;;;5063200;28;20265;-77
2022/08/15 01:59:01;;;;;;;9.10;6.43;;;;;;;;;;5061301;28;20287;-77
2022/08/15 02:01:38;;;;;;;10.83;6.70;;;;;;;;;;5065437;28;20214;-77
2022/08/15 02:04:06;;;;;;;11.27;7.40;;;;;;;;;;5061258;28;20197;-77
2022/08/15 02:06:34;;;;;;;11.17;7.70;;;;;;;;;;5061007;28;20203;-77
2022/08/15 02:11:47;;;;;;;10.60;6.93;;;;;;;;;;5126593;22;20221;-84
2022/08/15 02:14:14;;;;;;;9.97;7.00;;;;;;;;;;5091196;28;20205;-82
2022/08/15 02:16:46;;;;;;;12.10;7.37;;;;;;;;;;5091675;28;20684;-82
2022/08/15 02:19:16;;;;;;;11.87;7.43;;;;;;;;;;5092999;28;20241;-83
2022/08/15 02:21:44;;;;;;;11.30;7.40;;;;;;;;;;5078678;28;20202;-83
2022/08/15 02:24:13;;;;;;;13.30;7.47;;;;;;;;;;5073675;28;20266;-83
2022/08/15 02:26:40;;;;;;;10.83;7.43;;;;;;;;;;5062859;28;20270;-83
2022/08/15 02:29:07;;;;;;;9.43;7.07;;;;;;;;;;5072050;28;20290;-83
2022/08/15 02:31:35;;;;;;;16.40;8.20;;;;;;;;;;5072192;28;20259;-82
2022/08/15 02:34:04;;;;;;;14.27;7.90;;;;;;;;;;5067933;28;20202;-81
2022/08/15 02:36:33;;;;;;;12.77;7.97;;;;;;;;;;5069822;28;20289;-82
2022/08/15 02:39:01;;;;;;;12.83;8.00;;;;;;;;;;5067839;28;20203;-82
2022/08/15 02:41:31;;;;;;;10.37;7.17;;;;;;;;;;5073174;28;20610;-81
2022/08/15 02:43:58;;;;;;;11.53;7.70;;;;;;;;;;5073720;28;20276;-81
2022/08/15 02:46:25;;;;;;;11.13;7.73;;;;;;;;;;5070228;28;20302;-83
2022/08/15 02:48:53;;;;;;;10.13;6.80;;;;;;;;;;5061642;28;20226;-82
2022/08/15 02:51:23;;;;;;;12.47;7.67;;;;;;;;;;5072169;28;20227;-82
2022/08/15 02:53:51;;;;;;;10.57;7.27;;;;;;;;;;5064439;28;20199;-81
2022/08/15 02:56:19;;;;;;;14.13;6.90;;;;;;;;;;5073482;28;20191;-82
2022/08/15 02:58:46;;;;;;;13.03;7.60;;;;;;;;;;5068056;28;20206;-82
2022/08/15 03:01:14;;;;;;;11.00;7.07;;;;;;;;;;5068561;28;20215;-82
2022/08/15 03:03:42;;;;;;;12.00;7.33;;;;;;;;;;5071216;28;20232;-83
2022/08/15 03:06:10;;;;;;;12.13;7.67;;;;;;;;;;5075311;28;20205;-83
2022/08/15 03:08:40;;;;;;;16.17;7.37;;;;;;;;;;5067545;28;20261;-83
2022/08/15 03:11:08;;;;;;;10.20;6.63;;;;;;;;;;5074859;28;20226;-83
2022/08/15 03:13:35;;;;;;;12.63;7.33;;;;;;;;;;5069034;28;20199;-83
2022/08/15 03:16:03;;;;;;;10.97;7.10;;;;;;;;;;5071054;28;20240;-84
2022/08/15 03:18:32;;;;;;;11.87;7.97;;;;;;;;;;5078474;28;20209;-83
2022/08/15 03:21:00;;;;;;;10.67;7.37;;;;;;;;;;5068696;28;20219;-82
2022/08/15 03:23:30;;;;;;;11.53;7.83;;;;;;;;;;5075304;28;20254;-81
2022/08/15 03:25:59;;;;;;;10.87;6.83;;;;;;;;;;5069058;28;20212;-81
2022/08/15 03:28:31;;;;;;;12.93;7.23;;;;;;;;;;5079092;28;20769;-83
2022/08/15 03:30:59;;;;;;;10.73;7.57;;;;;;;;;;5072630;28;20704;-83
2022/08/15 03:33:27;;;;;;;12.00;7.50;;;;;;;;;;5072594;28;20204;-83
2022/08/15 03:35:54;;;;;;;10.07;7.20;;;;;;;;;;5070275;28;20202;-79
2022/08/15 03:38:21;;;;;;;11.97;7.37;;;;;;;;;;5073305;28;20209;-79
2022/08/15 03:40:50;;;;;;;10.00;7.03;;;;;;;;;;5073040;28;20719;-80
2022/08/15 03:43:20;;;;;;;12.37;8.03;;;;;;;;;;5071780;28;20226;-81
2022/08/15 03:45:49;;;;;;;12.03;7.53;;;;;;;;;;5075082;28;20308;-80
2022/08/15 03:48:16;;;;;;;14.20;8.30;;;;;;;;;;5071654;28;20228;-80
2022/08/15 03:50:44;;;;;;;14.37;7.73;;;;;;;;;;5070568;28;20317;-81
2022/08/15 03:53:11;;;;;;;10.40;7.00;;;;;;;;;;5074187;28;20198;-79
2022/08/15 03:55:39;;;;;;;12.10;8.03;;;;;;;;;;5073650;28;20281;-79
2022/08/15 03:58:07;;;;;;;11.70;8.10;;;;;;;;;;5070677;28;20269;-79
2022/08/15 04:00:38;;;;;;;12.00;8.20;;;;;;;;;;5073402;28;20748;-79
2022/08/15 04:03:06;;;;;;;11.23;7.40;;;;;;;;;;5067680;28;20230;-79
2022/08/15 04:05:34;;;;;;;9.20;6.37;;;;;;;;;;5073652;28;20855;-79
2022/08/15 04:08:02;;;;;;;8.07;5.23;;;;;;;;;;5073662;28;20199;-80
2022/08/15 04:10:29;;;;;;;10.33;5.60;;;;;;;;;;5072514;28;20225;-82
2022/08/15 04:12:57;;;;;;;8.17;4.40;;;;;;;;;;5072541;28;20678;-79
2022/08/15 04:15:25;;;;;;;10.37;5.13;;;;;;;;;;5070292;28;20241;-80
2022/08/15 04:17:53;;;;;;;12.30;5.57;;;;;;;;;;5070863;28;20289;-78
2022/08/15 04:20:21;;;;;;;12.83;6.00;;;;;;;;;;5072916;28;20726;-79
2022/08/15 04:22:49;;;;;;;13.20;5.73;;;;;;;;;;5070887;28;20224;-79
2022/08/15 04:25:18;;;;;;;14.50;5.83;;;;;;;;;;5072616;28;20194;-79
2022/08/15 04:27:46;;;;;;;12.03;5.70;;;;;;;;;;5073305;28;20202;-79
2022/08/15 04:30:13;;;;;;;10.93;6.47;;;;;;;;;;5068619;28;20230;-80
2022/08/15 04:32:41;;;;;;;8.80;5.90;;;;;;;;;;5077691;28;20202;-79
2022/08/15 04:35:11;;;;;;;9.30;6.60;;;;;;;;;;5074671;28;20210;-79
2022/08/15 04:37:42;;;;;;;10.57;6.70;;;;;;;;;;5068351;28;20677;-80
2022/08/15 04:40:12;;;;;;;9.30;6.07;;;;;;;;;;5090159;28;20308;-80
2022/08/15 04:42:46;;;;;;;8.43;5.80;;;;;;;;;;5067373;28;20305;-82
2022/08/15 04:45:13;;;;;;;11.03;6.40;;;;;;;;;;5075055;28;20289;-82
2022/08/15 04:47:40;;;;;;;14.60;6.47;;;;;;;;;;5074253;28;20297;-80
2022/08/15 04:50:08;;;;;;;9.57;5.70;;;;;;;;;;5076074;28;20225;-81
2022/08/15 04:52:44;;;;;;;13.67;5.63;;;;;;;;;;5075558;28;20213;-81
2022/08/15 04:55:11;;;;;;;11.07;6.03;;;;;;;;;;5064754;28;20208;-81
2022/08/15 04:57:38;;;;;;;8.57;5.30;;;;;;;;;;5072706;28;20206;-82
2022/08/15 05:00:07;;;;;;;8.93;5.87;;;;;;;;;;5067421;28;20218;-79
2022/08/15 05:02:34;;;;;;;14.77;6.37;;;;;;;;;;5068623;28;20210;-81
2022/08/15 05:05:01;;;;;;;16.37;6.33;;;;;;;;;;5070163;28;20265;-82
2022/08/15 05:07:29;;;;;;;15.10;6.40;;;;;;;;;;5075405;28;20203;-79
2022/08/15 05:09:57;;;;;;;10.40;5.80;;;;;;;;;;5072272;28;20218;-80
2022/08/15 05:12:24;;;;;;;8.57;5.07;;;;;;;;;;5067785;28;20653;-81
2022/08/15 05:14:52;;;;;;;10.00;5.83;;;;;;;;;;5073343;28;20213;-82
2022/08/15 05:17:19;;;;;;;12.83;6.00;;;;;;;;;;5075071;28;20276;-83
2022/08/15 05:19:46;;;;;;;11.80;5.50;;;;;;;;;;5075007;28;21042;-80
2022/08/15 05:22:13;;;;;;;10.03;5.83;;;;;;;;;;5075121;28;20206;-80
2022/08/15 05:24:41;;;;;;;10.13;5.43;;;;;;;;;;5065467;28;20218;-79
2022/08/15 05:27:09;;;;;;;10.70;5.13;;;;;;;;;;5074702;28;20233;-81
2022/08/15 05:29:36;;;;;;;13.83;6.30;;;;;;;;;;5072759;28;20240;-80
2022/08/15 05:32:07;;;;;;;8.30;5.50;;;;;;;;;;5075267;28;20199;-80
2022/08/15 05:34:34;;;;;;;11.30;6.47;;;;;;;;;;5073734;28;20358;-80
2022/08/15 05:37:01;;;;;;;13.50;6.43;;;;;;;;;;5074796;28;20798;-80
2022/08/15 05:39:30;;;;;;;12.00;6.73;;;;;;;;;;5071108;28;20229;-80
2022/08/15 05:42:09;;;;;;;11.80;7.63;;;;;;;;;;5076632;28;20198;-80
2022/08/15 05:44:41;;;;;;;14.03;6.23;;;;;;;;;;5069892;28;20236;-80
2022/08/15 05:47:13;;;;;;;9.47;6.13;;;;;;;;;;5077795;28;20237;-80
2022/08/15 05:49:45;;;;;;;9.63;6.50;;;;;;;;;;5077005;28;20642;-81
2022/08/15 05:52:24;;;;;;;16.67;6.90;;;;;;;;;;5072881;28;20199;-80
2022/08/15 05:54:58;;;;;;;10.13;6.77;;;;;;;;;;5078363;28;20309;-82
2022/08/15 05:57:29;;;;;;;10.70;6.73;;;;;;;;;;5083492;28;20270;-82
2022/08/15 05:59:59;;;;;;;15.07;6.50;;;;;;;;;;5072766;28;20272;-79
2022/08/15 06:02:29;;;;;;;10.47;6.17;;;;;;;;;;5075994;28;20198;-80
2022/08/15 06:04:59;;;;;;;10.53;6.70;;;;;;;;;;5072927;28;20228;-79
2022/08/15 06:07:28;;;;;;;12.73;6.13;;;;;;;;;;5072373;28;20190;-79
2022/08/15 06:09:56;;;;;;;12.60;5.83;;;;;;;;;;5073093;28;20242;-81
2022/08/15 06:12:26;;;;;;;8.83;6.27;;;;;;;;;;5074464;28;20210;-79
2022/08/15 06:14:56;;;;;;;9.60;6.53;;;;;;;;;;5067852;28;20209;-80
2022/08/15 06:17:28;;;;;;;13.77;6.47;;;;;;;;;;5070457;28;20657;-81
2022/08/15 06:20:03;;;;;;;9.90;5.80;;;;;;;;;;5073475;28;20226;-81
2022/08/15 06:22:40;;;;;;;9.87;6.70;;;;;;;;;;5072340;28;20256;-80
2022/08/15 06:25:14;;;;;;;11.70;6.50;;;;;;;;;;5073432;28;20206;-79
2022/08/15 06:27:47;;;;;;;11.50;6.70;;;;;;;;;;5074612;28;20229;-80
2022/08/15 06:30:17;;;;;;;10.20;6.70;;;;;;;;;;5070013;28;20238;-81
2022/08/15 06:32:51;;;;;;;16.20;6.47;;;;;;;;;;5067735;28;20202;-80
2022/08/15 06:35:24;;;;;;;11.00;6.60;;;;;;;;;;5067667;28;20244;-81
2022/08/15 06:37:59;;;;;;;14.17;6.03;;;;;;;;;;5069932;28;20199;-79
2022/08/15 06:40:29;;;;;;;8.63;5.97;;;;;;;;;;5075096;28;20233;-80
2022/08/15 06:42:57;;;;;;;9.73;6.00;;;;;;;;;;5075198;28;21019;-79
2022/08/15 06:45:26;;;;;;;11.23;6.23;;;;;;;;;;5075503;28;20202;-79
2022/08/15 06:48:00;;;;;;;9.93;6.10;;;;;;;;;;5074292;28;20202;-80
2022/08/15 06:50:30;;;;;;;16.37;6.40;;;;;;;;;;5077473;28;20723;-79
2022/08/15 06:53:00;;;;;;;8.53;6.13;;;;;;;;;;5075959;28;20225;-80
2022/08/15 06:55:31;;;;;;;12.53;5.60;;;;;;;;;;5073141;28;20206;-80
2022/08/15 06:58:01;;;;;;;9.03;6.10;;;;;;;;;;5078708;28;20210;-79
2022/08/15 07:00:33;;;;;;;9.90;5.43;;;;;;;;;;5074911;28;20321;-80
2022/08/15 07:03:07;;;;;;;6.83;4.90;;;;;;;;;;5075605;28;20202;-80
2022/08/15 07:05:48;;;;;;;8.77;4.60;;;;;;;;;;5074025;28;20310;-81
2022/08/15 07:08:19;;;;;;;12.77;4.80;;;;;;;;;;5072178;28;20194;-79
2022/08/15 07:10:48;;;;;;;8.73;4.80;;;;;;;;;;5074602;28;20265;-80
2022/08/15 07:13:18;;;;;;;7.10;4.40;;;;;;;;;;5076961;28;20198;-81
2022/08/15 07:15:49;;;;;;;6.70;4.23;;;;;;;;;;5076843;28;20217;-80
2022/08/15 07:18:20;;;;;;;8.93;4.47;;;;;;;;;;5069105;28;20201;-81
2022/08/15 07:20:47;;;;;;;7.13;4.03;;;;;;;;;;5074058;28;20221;-81
2022/08/15 07:23:21;;;;;;;8.50;3.90;;;;;;;;;;5073253;28;20207;-80
2022/08/15 07:25:50;;;;;;;6.57;3.90;;;;;;;;;;5072731;28;20616;-82
2022/08/15 07:28:19;;;;;;;6.13;3.90;;;;;;;;;;5071282;28;20281;-81
2022/08/15 07:30:47;;;;;;;8.17;4.67;;;;;;;;;;5071152;22;20234;-77
2022/08/15 07:33:34;;;;;;;7.17;4.53;;;;;;;;;;5043769;28;20206;-77
2022/08/15 07:36:03;;;;;;;7.87;3.97;;;;;;;;;;5044295;28;20216;-76
2022/08/15 07:38:32;;;;;;;8.43;4.57;;;;;;;;;;5045562;28;20197;-77
2022/08/15 07:41:13;;;;;;;9.50;4.40;;;;;;;;;;5050836;28;20231;-76
2022/08/15 07:43:40;;;;;;;7.30;4.23;;;;;;;;;;5047389;28;20290;-77
2022/08/15 07:46:09;;;;;;;13.83;4.47;;;;;;;;;;5046742;28;20310;-77
2022/08/15 07:48:38;;;;;;;10.17;4.87;;;;;;;;;;5046985;28;20211;-76
2022/08/15 07:51:07;;;;;;;9.33;4.57;;;;;;;;;;5045056;28;20226;-77
2022/08/15 07:53:35;;;;;;;7.57;4.47;;;;;;;;;;5040217;28;20388;-76
2022/08/15 07:56:07;;;;;;;10.33;3.90;;;;;;;;;;5043127;28;20731;-76
2022/08/15 07:58:35;;;;;;;9.00;4.10;;;;;;;;;;5045371;28;20230;-76
2022/08/15 08:01:10;;;;;;;7.23;3.73;;;;;;;;;;5043875;28;20226;-76
2022/08/15 08:03:41;;;;;;;8.73;3.87;;;;;;;;;;5046002;28;20226;-77
2022/08/15 08:06:11;;;;;;;5.47;3.47;;;;;;;;;;5044191;28;20706;-76
2022/08/15 08:08:40;;;;;;;8.37;4.00;;;;;;;;;;5045021;28;20213;-76
2022/08/15 08:11:10;;;;;;;7.03;4.00;;;;;;;;;;5043124;28;20591;-77
2022/08/15 08:13:42;;;;;;;10.60;3.67;;;;;;;;;;5041371;28;20231;-76
2022/08/15 08:16:15;;;;;;;9.63;3.40;;;;;;;;;;5043106;28;20234;-77
2022/08/15 08:18:48;;;;;;;10.80;3.40;;;;;;;;;;5041487;28;20688;-77
2022/08/15 08:21:17;;;;;;;12.80;3.50;;;;;;;;;;5041650;28;20215;-76
2022/08/15 08:23:46;;;;;;;10.47;3.70;;;;;;;;;;5040832;28;20318;-77
2022/08/15 08:26:24;;;;;;;12.77;3.40;;;;;;;;;;5044517;28;20206;-77
2022/08/15 08:28:57;;;;;;;16.27;2.90;;;;;;;;;;5044047;28;20213;-76
2022/08/15 08:31:26;;;;;;;8.03;2.90;;;;;;;;;;5044163;28;20239;-77
2022/08/15 08:34:00;;;;;;;4.50;2.60;;;;;;;;;;5042825;28;20744;-76
2022/08/15 08:36:30;;;;;;;3.07;2.30;;;;;;;;;;5043676;28;20208;-77
2022/08/15 08:39:04;;;;;;;6.93;2.60;;;;;;;;;;5043568;28;20589;-76
2022/08/15 08:41:36;;;;;;;5.20;2.83;;;;;;;;;;5045617;28;20258;-77
2022/08/15 08:44:10;;;;;;;6.53;2.67;;;;;;;;;;5041299;28;20327;-76
2022/08/15 08:46:44;;;;;;;5.57;2.80;;;;;;;;;;5039773;28;20207;-77
2022/08/15 08:49:17;;;;;;;6.50;2.50;;;;;;;;;;5035994;28;20195;-76
2022/08/15 08:51:46;;;;;;;4.30;2.60;;;;;;;;;;5038674;28;20358;-76
2022/08/15 08:54:18;;;;;;;8.00;3.10;;;;;;;;;;5042699;28;20292;-76
2022/08/15 08:56:47;;;;;;;6.33;2.67;;;;;;;;;;5041618;28;20214;-76
2022/08/15 08:59:18;;;;;;;4.90;2.57;;;;;;;;;;5043481;28;20204;-76
2022/08/15 09:01:46;;;;;;;5.63;2.67;;;;;;;;;;5049663;28;21367;-77
2022/08/15 09:04:18;;;;;;;4.40;2.70;;;;;;;;;;5047373;28;20334;-77
2022/08/15 09:06:46;;;;;;;5.93;2.73;;;;;;;;;;5048172;28;20291;-76
2022/08/15 09:09:18;;;;;;;8.70;2.60;;;;;;;;;;5044493;28;20206;-76
2022/08/15 09:11:48;;;;;;;6.23;2.23;;;;;;;;;;5041677;28;20206;-77
2022/08/15 09:14:17;;;;;;;10.37;2.60;;;;;;;;;;5040814;28;20675;-77
2022/08/15 09:16:45;;;;;;;3.97;2.50;;;;;;;;;;5043386;28;20204;-77
2022/08/15 09:19:16;;;;;;;9.90;2.70;;;;;;;;;;5046516;28;20211;-76
2022/08/15 09:21:45;;;;;;;4.10;2.70;;;;;;;;;;5044065;28;20996;-77
2022/08/15 09:24:13;;;;;;;5.23;2.90;;;;;;;;;;5044256;28;20226;-76
2022/08/15 09:26:45;;;;;;;8.13;2.63;;;;;;;;;;5042946;28;20345;-77
2022/08/15 09:29:18;;;;;;;7.60;3.03;;;;;;;;;;5043931;28;20288;-77
2022/08/15 09:31:49;;;;;;;8.37;2.87;;;;;;;;;;5045085;28;20239;-77
2022/08/15 09:34:37;;;;;;;10.03;3.00;;;;;;;;;;5042835;28;20282;-77
2022/08/15 09:37:14;;;;;;;5.47;2.77;;;;;;;;;;5020348;28;20207;-77
2022/08/15 09:39:51;;;;;;;5.00;2.57;;;;;;;;;;5042629;28;20248;-76
2022/08/15 09:42:39;;;;;;;4.97;2.70;;;;;;;;;;5048356;28;20214;-77
2022/08/15 09:45:11;;;;;;;4.57;3.10;;;;;;;;;;5041210;28;20219;-76
2022/08/15 09:47:47;;;;;;;9.20;2.70;;;;;;;;;;5043344;28;20203;-77
2022/08/15 09:50:27;;;;;;;4.23;2.70;;;;;;;;;;5036689;28;20228;-76
2022/08/15 09:53:00;;;;;;;7.03;2.73;;;;;;;;;;5040735;28;20214;-76
2022/08/15 09:55:32;;;;;;;8.00;2.83;;;;;;;;;;5040504;28;20207;-77
2022/08/15 09:57:59;;;;;;;6.97;2.70;;;;;;;;;;5045671;28;20258;-77
2022/08/15 10:00:32;;;;;;;8.33;3.20;;;;;;;;;;5046088;28;20310;-77
2022/08/15 10:03:03;;;;;;;8.40;3.10;;;;;;;;;;5041140;28;20212;-77
2022/08/15 10:05:44;;;;;;;8.80;2.83;;;;;;;;;;5038254;28;20243;-77
2022/08/15 10:08:14;;;;;;;6.30;3.90;;;;;;;;;;5036794;28;20560;-76
2022/08/15 10:10:48;;;;;;;10.43;3.77;;;;;;;;;;5039649;28;20238;-77
2022/08/15 10:13:26;;;;;;;11.03;5.07;;;;;;;;;;5038320;28;20671;-77
2022/08/15 10:15:53;;;;;;;9.60;4.33;;;;;;;;;;5040666;28;20196;-77
2022/08/15 10:18:39;;;;;;;12.57;3.97;;;;;;;;;;5046421;28;20200;-77
2022/08/15 10:21:18;;;;;;;8.90;3.63;;;;;;;;;;5042756;28;20308;-77
2022/08/15 10:23:47;;;;;;;9.17;3.63;;;;;;;;;;5042823;28;20696;-77
2022/08/15 10:26:20;;;;;;;10.40;3.93;;;;;;;;;;5049245;28;20228;-78
2022/08/15 10:28:59;;;;;;;7.60;3.47;;;;;;;;;;5045949;28;20342;-76
2022/08/15 10:31:28;;;;;;;6.13;3.53;;;;;;;;;;5049812;28;20655;-77
2022/08/15 10:33:58;;;;;;;15.87;4.40;;;;;;;;;;5043477;28;20209;-77
2022/08/15 10:36:27;;;;;;;7.13;3.73;;;;;;;;;;5046210;28;20219;-77
2022/08/15 10:38:59;;;;;;;8.47;3.93;;;;;;;;;;5045848;28;20663;-77
2022/08/15 10:41:28;;;;;;;5.67;3.70;;;;;;;;;;5046939;28;20215;-77
2022/08/15 10:44:09;;;;;;;8.73;3.83;;;;;;;;;;5044307;28;20218;-76
2022/08/15 10:46:50;;;;;;;7.10;3.73;;;;;;;;;;5048121;28;20201;-76
2022/08/15 10:49:22;;;;;;;9.23;3.70;;;;;;;;;;5050681;28;20218;-77
2022/08/15 10:52:01;;;;;;;9.17;4.00;;;;;;;;;;5045667;28;20231;-76
2022/08/15 10:54:39;;;;;;;11.23;3.47;;;;;;;;;;5048370;28;20252;-76
2022/08/15 10:57:07;;;;;;;14.93;3.90;;;;;;;;;;5045727;28;20222;-77
2022/08/15 10:59:36;;;;;;;6.23;3.60;;;;;;;;;;5046033;28;20199;-76
2022/08/15 11:02:10;;;;;;;18.77;3.97;;;;;;;;;;5040231;28;20234;-77
2022/08/15 11:04:39;;;;;;;5.13;3.70;;;;;;;;;;5047132;28;20278;-77
2022/08/15 11:07:17;;;;;;;7.33;3.30;;;;;;;;;;5049434;28;20294;-76
2022/08/15 11:09:51;;;;;;;10.60;3.57;;;;;;;;;;5047428;28;20219;-76
2022/08/15 11:12:20;;;;;;;8.80;3.70;;;;;;;;;;5047563;28;20207;-76
2022/08/15 11:14:52;;;;;;;7.83;3.60;;;;;;;;;;5045028;28;20200;-76
2022/08/15 11:17:23;;;;;;;9.60;3.63;;;;;;;;;;5045462;28;20284;-76
2022/08/15 11:19:51;;;;;;;7.83;3.90;;;;;;;;;;5047079;28;20315;-76
2022/08/15 11:22:29;;;;;;;8.53;3.67;;;;;;;;;;5044872;28;20206;-76
2022/08/15 11:25:00;;;;;;;7.33;3.50;;;;;;;;;;5043192;28;20223;-76
2022/08/15 11:27:27;;;;;;;7.67;3.80;;;;;;;;;;5048691;28;20199;-77
2022/08/15 11:29:57;;;;;;;8.40;3.33;;;;;;;;;;5049669;28;20231;-77
2022/08/15 11:32:25;;;;;;;7.87;3.80;;;;;;;;;;5048055;28;20203;-77
2022/08/15 11:34:53;;;;;;;10.20;3.70;;;;;;;;;;5041665;28;20227;-77
2022/08/15 11:37:21;;;;;;;6.63;3.63;;;;;;;;;;5047121;28;20211;-76
2022/08/15 11:40:02;;;;;;;14.53;3.33;;;;;;;;;;5045711;28;20219;-76
2022/08/15 11:42:32;;;;;;;7.07;3.50;;;;;;;;;;5044933;28;20208;-76
2022/08/15 11:45:00;;;;;;;13.40;3.50;;;;;;;;;;5039549;28;20602;-77
2022/08/15 11:47:30;;;;;;;7.97;3.70;;;;;;;;;;5043643;28;20238;-76
2022/08/15 11:49:59;;;;;;;11.47;3.20;;;;;;;;;;5044910;28;20858;-76
2022/08/15 11:52:28;;;;;;;8.07;3.27;;;;;;;;;;5043244;28;20464;-77
2022/08/15 11:55:14;;;;;;;10.20;3.60;;;;;;;;;;5042467;28;20230;-76
2022/08/15 11:57:43;;;;;;;8.27;3.43;;;;;;;;;;5046275;28;20563;-76
2022/08/15 12:00:13;;;;;;;7.40;3.83;;;;;;;;;;5045309;28;20250;-77
2022/08/15 12:02:40;;;;;;;9.57;3.77;;;;;;;;;;5047416;28;20207;-77
2022/08/15 12:05:13;;;;;;;9.40;3.60;;;;;;;;;;5044562;28;20394;-76
2022/08/15 12:07:43;;;;;;;5.43;3.50;;;;;;;;;;5040362;28;20207;-76
2022/08/15 12:10:19;;;;;;;6.80;3.33;;;;;;;;;;5044441;28;20720;-76
2022/08/15 12:12:49;;;;;;;8.43;3.87;;;;;;;;;;5051588;28;20207;-78
2022/08/15 12:15:18;;;;;;;5.57;3.10;;;;;;;;;;5059866;28;20196;-76
2022/08/15 12:18:00;;;;;;;8.77;3.30;;;;;;;;;;5048040;28;20698;-78
2022/08/15 12:20:39;;;;;;;5.07;3.40;;;;;;;;;;5048747;28;20672;-78
2022/08/15 12:23:24;;;;;;;8.40;3.30;;;;;;;;;;5042162;28;20290;-77
2022/08/15 12:25:52;;;;;;;7.47;3.93;;;;;;;;;;5039906;28;20225;-77
2022/08/15 12:28:20;;;;;;;8.10;3.20;;;;;;;;;;5038599;28;20219;-78
2022/08/15 12:30:48;;;;;;;7.53;3.10;;;;;;;;;;5049954;28;20319;-77
2022/08/15 12:33:15;;;;;;;7.47;3.80;;;;;;;;;;5055082;28;20262;-78
2022/08/15 12:35:43;;;;;;;7.67;3.17;;;;;;;;;;5054223;28;20203;-77
2022/08/15 12:38:10;;;;;;;6.10;3.20;;;;;;;;;;5052262;28;20282;-77
2022/08/15 12:40:38;;;;;;;6.53;3.23;;;;;;;;;;5051645;28;20222;-78
2022/08/15 12:43:05;;;;;;;6.20;3.50;;;;;;;;;;5050468;28;20265;-78
2022/08/15 12:45:34;;;;;;;6.17;3.20;;;;;;;;;;5051135;28;20729;-77
2022/08/15 12:48:02;;;;;;;11.07;3.53;;;;;;;;;;5047977;28;20782;-77
2022/08/15 12:50:29;;;;;;;5.17;3.30;;;;;;;;;;5050998;28;20233;-77
2022/08/15 12:52:58;;;;;;;4.90;3.30;;;;;;;;;;5050101;28;20833;-76
2022/08/15 12:55:26;;;;;;;4.63;3.00;;;;;;;;;;5048099;28;20203;-78
2022/08/15 12:57:53;;;;;;;6.00;3.10;;;;;;;;;;5044095;28;20305;-77
2022/08/15 13:00:20;;;;;;;8.27;3.53;;;;;;;;;;5050520;28;20254;-77
2022/08/15 13:02:49;;;;;;;6.50;3.57;;;;;;;;;;5050792;28;20239;-78
2022/08/15 13:05:19;;;;;;;6.30;3.27;;;;;;;;;;5047292;28;20237;-77
2022/08/15 13:07:46;;;;;;;7.97;3.03;;;;;;;;;;5049920;28;20294;-78
2022/08/15 13:10:17;;;;;;;7.17;2.90;;;;;;;;;;5051910;28;20700;-78
2022/08/15 13:12:44;;;;;;;11.50;3.77;;;;;;;;;;5048705;28;20215;-78
2022/08/15 13:15:12;;;;;;;6.83;3.37;;;;;;;;;;5052434;28;20210;-78
2022/08/15 13:17:39;;;;;;;7.67;3.37;;;;;;;;;;5044666;28;20822;-77
2022/08/15 13:25:38;;;;;;;4.70;3.30;;;;;;;;;;5045658;28;20235;-78
2022/08/15 13:28:05;;;;;;;7.57;3.20;;;;;;;;;;5046301;28;20353;-77
2022/08/15 13:30:35;;;;;;;5.03;3.30;;;;;;;;;;5050804;28;20235;-78
2022/08/15 13:33:03;;;;;;;7.57;3.30;;;;;;;;;;5048527;28;20230;-78
2022/08/15 13:35:31;;;;;;;4.60;3.33;;;;;;;;;;5043199;28;20206;-78
2022/08/15 13:37:59;;;;;;;9.50;3.50;;;;;;;;;;5046241;28;20209;-78
2022/08/15 13:40:27;;;;;;;12.20;3.60;;;;;;;;;;5041940;28;20227;-77
2022/08/15 13:42:55;;;;;;;8.13;3.20;;;;;;;;;;5047906;28;20213;-77
2022/08/15 13:45:22;;;;;;;9.07;3.20;;;;;;;;;;5041613;28;20219;-77
2022/08/15 13:47:49;;;;;;;6.50;3.17;;;;;;;;;;5045678;28;20227;-77
2022/08/15 13:50:17;;;;;;;5.87;3.40;;;;;;;;;;5043506;28;20223;-78
2022/08/15 13:52:46;;;;;;;6.00;3.27;;;;;;;;;;5041779;28;20239;-78
2022/08/15 13:55:13;;;;;;;8.40;3.43;;;;;;;;;;5049064;28;20203;-77
2022/08/15 13:57:40;;;;;;;6.43;3.07;;;;;;;;;;5044501;28;20214;-78
2022/08/15 14:00:09;;;;;;;5.00;3.30;;;;;;;;;;5044788;28;20215;-77
2022/08/15 14:02:37;;;;;;;4.80;3.50;;;;;;;;;;5044597;28;20222;-77
2022/08/15 14:05:05;;;;;;;8.67;3.47;;;;;;;;;;5046262;28;20298;-76
2022/08/15 14:07:32;;;;;;;8.93;3.27;;;;;;;;;;5041775;28;20277;-77
2022/08/15 14:10:01;;;;;;;4.80;3.40;;;;;;;;;;5043297;28;20223;-77
2022/08/15 14:12:28;;;;;;;7.67;3.17;;;;;;;;;;5044532;28;20225;-77
2022/08/15 14:14:58;;;;;;;6.57;3.20;;;;;;;;;;5038662;28;20294;-77
2022/08/15 14:17:26;;;;;;;6.93;3.00;;;;;;;;;;5044849;28;20682;-77
2022/08/15 14:19:53;;;;;;;6.03;3.30;;;;;;;;;;5043063;28;20352;-77
2022/08/15 14:22:20;;;;;;;4.90;3.17;;;;;;;;;;5041607;28;20293;-77
2022/08/15 14:24:49;;;;;;;5.97;3.60;;;;;;;;;;5044968;28;20214;-77
2022/08/15 14:27:18;;;;;;;10.27;3.60;;;;;;;;;;5043160;28;20223;-77
2022/08/15 14:29:46;;;;;;;4.67;3.03;;;;;;;;;;5043715;28;20222;-77
2022/08/15 14:32:15;;;;;;;5.63;3.10;;;;;;;;;;5044175;28;20234;-78
2022/08/15 14:34:44;;;;;;;6.67;3.10;;;;;;;;;;5038779;28;20294;-77
2022/08/15 14:37:14;;;;;;;5.63;2.97;;;;;;;;;;5042270;28;20199;-77
2022/08/15 14:39:42;;;;;;;5.83;3.20;;;;;;;;;;5036618;28;20223;-78
2022/08/15 14:42:10;;;;;;;7.93;3.17;;;;;;;;;;5045666;28;20747;-78
2022/08/15 14:44:40;;;;;;;7.63;3.30;;;;;;;;;;5039119;28;20279;-76
2022/08/15 14:47:07;;;;;;;5.40;3.17;;;;;;;;;;5041706;28;20219;-78
2022/08/15 14:49:34;;;;;;;7.40;3.17;;;;;;;;;;5042979;28;20630;-78
2022/08/15 14:52:02;;;;;;;5.57;2.80;;;;;;;;;;5050404;28;20286;-78
2022/08/15 14:54:31;;;;;;;4.93;3.07;;;;;;;;;;5048547;28;20938;-78
2022/08/15 14:56:59;;;;;;;7.70;3.47;;;;;;;;;;5046567;28;20223;-78
2022/08/15 14:59:26;;;;;;;4.33;2.93;;;;;;;;;;5045662;28;20211;-79
2022/08/15 15:01:55;;;;;;;9.60;3.40;;;;;;;;;;5058003;28;20234;-77
2022/08/15 15:04:22;;;;;;;5.70;3.30;;;;;;;;;;5054642;28;20655;-77